createdAt,value
2019-04-29T00:01:50.975Z,12.90
2019-04-29T00:04:19.921Z,12.90
2019-04-29T00:06:48.953Z,13.00
2019-04-29T00:09:19.132Z,13.10
2019-04-29T00:11:48.051Z,13.10
2019-04-29T00:14:19.038Z,13.20
2019-04-29T00:16:49.388Z,13.30
2019-04-29T00:19:19.921Z,13.20
2019-04-29T00:21:48.882Z,13.10
2019-04-29T00:24:17.837Z,12.90
2019-04-29T00:26:46.838Z,12.80
2019-04-29T00:29:15.689Z,12.90
2019-04-29T00:31:45.649Z,13.00
2019-04-29T00:34:14.603Z,12.90
2019-04-29T00:36:47.663Z,12.80
2019-04-29T00:39:21.011Z,12.80
2019-04-29T00:42:07.399Z,12.80
2019-04-29T00:44:36.421Z,12.80
2019-04-29T00:47:05.421Z,12.80
2019-04-29T00:49:34.364Z,12.80
2019-04-29T00:52:04.914Z,12.90
2019-04-29T00:54:39.364Z,12.80
2019-04-29T00:57:08.542Z,12.70
2019-04-29T00:59:37.546Z,12.50
2019-04-29T01:02:08.378Z,12.50
2019-04-29T01:04:39.853Z,12.50
2019-04-29T01:07:10.458Z,12.60
2019-04-29T01:09:47.008Z,12.60
2019-04-29T01:12:21.759Z,12.60
2019-04-29T01:14:51.850Z,12.60
2019-04-29T01:17:30.440Z,12.70
2019-04-29T01:20:19.772Z,12.70
2019-04-29T01:23:06.240Z,12.80
2019-04-29T01:25:08.681Z,12.80
2019-04-29T01:27:51.120Z,13.00
2019-04-29T01:30:43.980Z,13.10
2019-04-29T01:33:15.441Z,13.00
2019-04-29T01:35:58.062Z,13.00
2019-04-29T01:38:18.305Z,13.10
2019-04-29T01:40:59.569Z,13.00
2019-04-29T01:43:46.344Z,12.90
2019-04-29T01:46:21.069Z,12.80
2019-04-29T01:51:45.881Z,12.40
2019-04-29T01:54:15.206Z,12.50
2019-04-29T01:56:44.397Z,12.50
2019-04-29T01:59:19.967Z,12.60
2019-04-29T02:01:52.752Z,12.60
2019-04-29T02:04:24.741Z,12.40
2019-04-29T02:06:53.783Z,12.30
2019-04-29T02:09:32.790Z,11.90
2019-04-29T02:12:09.876Z,12.00
2019-04-29T02:14:38.739Z,12.10
2019-04-29T02:17:10.002Z,12.20
2019-04-29T02:19:39.181Z,12.20
2019-04-29T02:22:44.891Z,12.30
2019-04-29T02:25:15.594Z,12.40
2019-04-29T02:27:44.644Z,12.40
2019-04-29T02:30:24.236Z,12.60
2019-04-29T02:32:55.384Z,12.60
2019-04-29T02:35:23.850Z,12.40
2019-04-29T02:37:55.087Z,12.30
2019-04-29T02:40:26.068Z,12.40
2019-04-29T02:43:08.613Z,12.50
2019-04-29T02:45:39.319Z,12.40
2019-04-29T02:48:10.870Z,12.10
2019-04-29T02:50:50.436Z,12.10
2019-04-29T02:53:13.400Z,12.10
2019-04-29T02:55:50.116Z,12.20
2019-04-29T02:58:22.183Z,12.20
2019-04-29T03:01:18.223Z,12.20
2019-04-29T03:03:58.160Z,12.40
2019-04-29T03:06:27.067Z,12.30
2019-04-29T03:08:56.876Z,12.40
2019-04-29T03:11:28.659Z,12.30
2019-04-29T03:13:57.720Z,12.20
2019-04-29T03:16:27.875Z,12.30
2019-04-29T03:19:16.268Z,12.80
2019-04-29T03:21:49.546Z,12.80
2019-04-29T03:24:19.699Z,12.70
2019-04-29T03:26:48.723Z,12.70
2019-04-29T03:29:23.391Z,12.70
2019-04-29T03:31:53.516Z,12.70
2019-04-29T03:34:22.605Z,12.40
2019-04-29T03:36:53.168Z,12.30
2019-04-29T03:39:22.453Z,12.30
2019-04-29T03:41:51.494Z,12.40
2019-04-29T03:44:20.491Z,12.30
2019-04-29T03:46:49.594Z,12.40
2019-04-29T03:49:18.582Z,12.30
2019-04-29T03:51:47.528Z,12.40
2019-04-29T03:54:16.504Z,12.40
2019-04-29T03:56:46.005Z,12.30
2019-04-29T03:59:15.201Z,12.30
2019-04-29T04:01:51.700Z,12.40
2019-04-29T04:04:37.985Z,12.50
2019-04-29T04:07:27.413Z,12.40
2019-04-29T04:09:56.451Z,12.30
2019-04-29T04:12:25.496Z,12.50
2019-04-29T04:14:54.531Z,12.40
2019-04-29T04:17:36.861Z,12.30
2019-04-29T04:20:06.512Z,12.20
2019-04-29T04:22:41.112Z,12.20
2019-04-29T04:25:10.221Z,12.30
2019-04-29T04:27:40.214Z,12.20
2019-04-29T04:30:12.139Z,12.30
2019-04-29T04:32:45.487Z,12.30
2019-04-29T04:35:16.791Z,12.20
2019-04-29T04:37:50.717Z,12.20
2019-04-29T04:40:31.362Z,12.40
2019-04-29T04:43:00.356Z,12.60
2019-04-29T04:45:29.423Z,13.00
2019-04-29T04:48:02.659Z,12.60
2019-04-29T04:50:34.157Z,12.60
2019-04-29T04:53:04.206Z,12.50
2019-04-29T04:55:35.898Z,12.60
2019-04-29T04:58:05.158Z,12.60
2019-04-29T05:00:35.737Z,12.50
2019-04-29T05:03:05.986Z,11.90
2019-04-29T05:05:37.999Z,11.50
2019-04-29T05:08:07.026Z,11.40
2019-04-29T05:10:37.950Z,11.50
2019-04-29T05:13:06.990Z,12.00
2019-04-29T05:15:39.559Z,12.20
2019-04-29T05:18:08.504Z,12.10
2019-04-29T05:20:37.441Z,12.20
2019-04-29T05:23:07.976Z,12.30
2019-04-29T05:25:36.858Z,12.20
2019-04-29T05:28:07.279Z,12.40
2019-04-29T05:30:40.235Z,12.50
2019-04-29T05:33:09.242Z,12.60
2019-04-29T05:35:50.422Z,12.80
2019-04-29T05:43:46.807Z,12.60
2019-04-29T05:46:21.653Z,12.50
2019-04-29T05:48:49.589Z,12.30
2019-04-29T05:51:41.965Z,12.30
2019-04-29T05:54:14.865Z,12.30
2019-04-29T05:57:09.669Z,12.30
2019-04-29T06:06:06.671Z,12.80
2019-04-29T06:08:39.092Z,12.70
2019-04-29T06:11:14.794Z,12.30
2019-04-29T06:13:47.663Z,12.40
2019-04-29T06:16:21.057Z,12.50
2019-04-29T06:19:00.386Z,12.60
2019-04-29T06:28:36.572Z,12.60
2019-04-29T06:30:59.379Z,12.50
2019-04-29T06:33:53.385Z,12.60
2019-04-29T06:36:34.138Z,12.80
2019-04-29T06:47:42.921Z,13.40
2019-04-29T06:50:20.688Z,13.20
2019-04-29T06:53:05.586Z,13.10
2019-04-29T06:59:07.365Z,13.00
2019-04-29T07:12:12.892Z,13.40
2019-04-29T07:20:40.363Z,13.40
2019-04-29T07:23:09.301Z,13.40
2019-04-29T07:25:38.053Z,13.70
2019-04-29T07:28:06.918Z,13.80
2019-04-29T07:30:39.220Z,13.80
2019-04-29T07:33:06.363Z,13.80
2019-04-29T07:35:38.062Z,13.70
2019-04-29T07:38:08.623Z,13.50
2019-04-29T07:40:38.761Z,13.60
2019-04-29T07:43:26.012Z,13.60
2019-04-29T07:45:58.749Z,13.60
2019-04-29T07:48:31.305Z,13.60
2019-04-29T07:51:04.087Z,13.50
2019-04-29T08:02:20.612Z,13.00
2019-04-29T08:04:09.074Z,13.20
2019-04-29T08:04:54.415Z,13.20
2019-04-29T08:07:36.136Z,13.20
2019-04-29T09:47:57.788Z,14.00
2019-04-29T09:50:28.460Z,13.90
2019-04-29T10:27:44.874Z,12.80
2019-04-29T11:09:04.764Z,13.50
2019-04-29T11:11:34.069Z,14.20
2019-04-29T11:14:03.264Z,14.30
2019-04-29T11:16:46.128Z,14.50
2019-04-29T11:19:05.833Z,14.60
2019-04-29T11:21:38.802Z,14.70
2019-04-29T11:24:19.546Z,14.80
2019-04-29T11:26:52.224Z,14.80
2019-04-29T11:29:22.129Z,14.80
2019-04-29T11:32:00.704Z,14.80
2019-04-29T11:34:33.243Z,15.00
2019-04-29T11:37:04.339Z,15.10
2019-04-29T11:39:34.304Z,15.10
2019-04-29T11:42:05.213Z,14.90
2019-04-29T11:44:35.683Z,14.60
2019-04-29T11:47:04.738Z,14.90
2019-04-29T11:49:35.228Z,15.10
2019-04-29T11:52:09.567Z,14.90
2019-04-29T11:54:38.163Z,14.60
2019-04-29T11:57:16.979Z,14.60
2019-04-29T12:00:00.814Z,14.70
2019-04-29T12:02:45.158Z,14.80
2019-04-29T12:05:20.950Z,14.50
2019-04-29T12:07:50.909Z,14.20
2019-04-29T12:10:20.235Z,14.00
2019-04-29T12:12:50.831Z,13.80
2019-04-29T12:15:29.964Z,14.00
2019-04-29T12:18:16.730Z,14.00
2019-04-29T12:20:56.225Z,14.00
2019-04-29T12:23:27.857Z,13.80
2019-04-29T12:25:58.661Z,13.90
2019-04-29T12:47:03.718Z,14.20
2019-04-29T12:49:33.730Z,14.40
2019-04-29T12:52:02.745Z,14.30
2019-04-29T12:54:31.708Z,14.30
2019-04-29T12:57:00.610Z,14.20
2019-04-29T12:59:35.573Z,14.20
2019-04-29T13:02:09.033Z,14.20
2019-04-29T13:04:39.623Z,14.40
2019-04-29T13:07:15.832Z,14.40
2019-04-29T13:09:46.496Z,14.60
2019-04-29T13:12:19.331Z,14.70
2019-04-29T13:15:02.260Z,14.90
2019-04-29T13:17:26.569Z,15.10
2019-04-29T13:20:07.206Z,14.90
2019-04-29T13:22:34.980Z,15.30
2019-04-29T13:25:04.964Z,15.40
2019-04-29T13:27:34.715Z,15.50
2019-04-29T13:30:15.193Z,15.50
2019-04-29T13:32:40.211Z,15.70
2019-04-29T13:35:12.117Z,15.40
2019-04-29T13:37:40.409Z,15.00
2019-04-29T13:40:11.136Z,14.90
2019-04-29T13:42:48.531Z,14.90
2019-04-29T13:45:20.229Z,15.20
2019-04-29T13:47:56.267Z,15.20
2019-04-29T13:50:40.803Z,14.90
2019-04-29T13:53:11.738Z,15.00
2019-04-29T13:55:49.188Z,15.00
2019-04-29T13:58:29.372Z,15.20
2019-04-29T14:01:00.032Z,15.40
2019-04-29T14:03:32.892Z,15.40
2019-04-29T14:06:04.350Z,15.40
2019-04-29T14:08:32.383Z,15.40
2019-04-29T14:11:01.415Z,15.60
2019-04-29T14:14:12.260Z,15.50
2019-04-29T14:45:27.337Z,16.10
2019-04-29T14:48:13.898Z,16.40
2019-04-29T14:50:44.468Z,16.20
2019-04-29T14:53:13.485Z,16.20
2019-04-29T14:55:42.582Z,16.40
2019-04-29T14:58:19.250Z,16.60
2019-04-29T15:01:12.824Z,16.60
2019-04-29T15:03:56.569Z,16.80
2019-04-29T15:06:28.957Z,16.90
2019-04-29T15:08:57.736Z,17.00
2019-04-29T15:11:36.971Z,16.90
2019-04-29T15:14:25.075Z,16.80
2019-04-29T15:17:02.757Z,17.00
2019-04-29T15:19:54.788Z,16.90
2019-04-29T15:22:26.206Z,16.90
2019-04-29T15:24:58.020Z,17.10
2019-04-29T15:27:35.002Z,16.90
2019-04-29T15:39:28.456Z,17.20
2019-04-29T16:33:38.992Z,16.60
2019-04-29T16:40:07.140Z,16.30
2019-04-29T16:48:31.306Z,16.00
2019-04-29T16:58:44.125Z,16.00
2019-04-29T17:00:57.580Z,15.70
2019-04-29T17:03:32.779Z,15.90
2019-04-29T17:06:01.069Z,16.20
2019-04-29T17:08:39.149Z,16.30
2019-04-29T17:11:17.454Z,16.20
2019-04-29T17:13:45.832Z,15.70
2019-04-29T17:16:16.471Z,15.50
2019-04-29T17:18:45.433Z,15.50
2019-04-29T17:21:16.364Z,15.30
2019-04-29T17:23:45.384Z,15.20
2019-04-29T17:26:14.320Z,15.10
2019-04-29T17:28:47.825Z,15.00
2019-04-29T17:31:24.438Z,15.10
2019-04-29T17:33:58.618Z,15.20
2019-04-29T17:36:29.078Z,14.90
2019-04-29T17:38:57.994Z,14.80
2019-04-29T17:41:26.991Z,14.80
2019-04-29T17:44:14.582Z,14.80
2019-04-29T17:46:44.846Z,14.80
2019-04-29T17:49:18.162Z,14.80
2019-04-29T17:51:51.727Z,14.90
2019-04-29T17:54:40.307Z,14.90
2019-04-29T17:57:31.515Z,14.90
2019-04-29T18:00:44.522Z,15.10
2019-04-29T18:03:29.243Z,14.90
2019-04-29T18:06:24.341Z,14.90
2019-04-29T18:08:56.240Z,14.80
2019-04-29T18:11:25.273Z,14.80
2019-04-29T18:13:57.013Z,15.00
2019-04-29T18:16:28.544Z,15.00
2019-04-29T18:19:02.073Z,15.10
2019-04-29T18:21:52.373Z,15.40
2019-04-29T18:24:29.474Z,15.50
2019-04-29T18:26:59.715Z,15.40
2019-04-29T18:29:29.519Z,15.50
2019-04-29T18:32:00.541Z,15.60
2019-04-29T18:34:56.050Z,15.50
2019-04-29T18:37:02.349Z,15.20
2019-04-29T18:39:41.028Z,15.00
2019-04-29T18:42:10.677Z,14.80
2019-04-29T18:47:42.974Z,14.50
2019-04-29T18:50:21.336Z,14.70
2019-04-29T18:53:05.357Z,14.80
2019-04-29T18:58:42.140Z,14.60
2019-04-29T19:01:23.952Z,14.50
2019-04-29T19:12:42.043Z,14.80
2019-04-29T19:15:15.126Z,14.70
2019-04-29T19:17:59.198Z,14.70
2019-04-29T19:20:46.104Z,14.80
2019-04-29T19:23:29.317Z,14.90
2019-04-29T19:29:09.425Z,14.70
2019-04-29T19:41:25.644Z,14.80
2019-04-29T19:44:07.967Z,14.90
2019-04-29T19:49:15.856Z,14.80
2019-04-29T19:51:47.314Z,14.60
2019-04-29T19:54:18.597Z,14.30
2019-04-29T19:56:45.899Z,14.00
2019-04-29T19:59:17.453Z,13.90
2019-04-29T20:01:49.442Z,13.90
2019-04-29T20:04:22.539Z,14.10
2019-04-29T20:06:48.795Z,14.20
2019-04-29T20:09:22.585Z,14.30
2019-04-29T20:11:50.593Z,14.40
2019-04-29T20:14:26.587Z,14.40
2019-04-29T20:16:57.401Z,14.20
2019-04-29T20:19:33.157Z,14.10
2019-04-29T20:22:07.466Z,14.10
2019-04-29T20:24:35.728Z,14.10
2019-04-29T20:27:04.788Z,14.30
2019-04-29T20:29:37.795Z,14.60
2019-04-29T20:32:07.427Z,14.60
2019-04-29T20:34:36.153Z,14.60
2019-04-29T20:37:05.999Z,14.90
2019-04-29T20:39:35.836Z,15.00
2019-04-29T20:42:06.449Z,14.70
2019-04-29T20:44:36.939Z,14.60
2019-04-29T20:47:19.582Z,14.70
2019-04-29T20:49:39.587Z,14.50
2019-04-29T20:52:08.708Z,14.70
2019-04-29T20:54:37.748Z,14.80
2019-04-29T20:57:17.468Z,14.60
2019-04-29T20:59:37.361Z,14.70
2019-04-29T21:02:12.664Z,14.80
2019-04-29T21:04:45.744Z,15.00
2019-04-29T21:07:09.040Z,14.70
2019-04-29T21:09:37.874Z,14.50
2019-04-29T21:12:25.558Z,14.30
2019-04-29T21:14:59.160Z,14.30
2019-04-29T21:17:31.497Z,14.60
2019-04-29T21:19:57.069Z,14.60
2019-04-29T21:22:26.061Z,14.70
2019-04-29T21:24:55.098Z,14.80
2019-04-29T21:27:25.951Z,14.80
2019-04-29T21:29:55.440Z,14.60
2019-04-29T21:32:30.585Z,14.80
2019-04-29T21:35:05.745Z,15.00
2019-04-29T21:37:43.971Z,15.00
2019-04-29T21:40:14.772Z,14.70
2019-04-29T21:42:47.188Z,14.80
2019-04-29T21:45:17.474Z,15.00
2019-04-29T21:47:52.971Z,15.00
2019-04-29T21:50:17.116Z,15.10
2019-04-29T21:52:46.873Z,15.10
2019-04-29T21:55:16.235Z,14.80
2019-04-29T21:57:45.298Z,14.60
2019-04-29T22:00:19.798Z,14.30
2019-04-29T22:02:49.091Z,14.20
2019-04-29T22:05:18.443Z,14.60
2019-04-29T22:07:47.568Z,14.60
2019-04-29T22:10:19.903Z,14.30
2019-04-29T22:12:50.808Z,14.00
2019-04-29T22:15:29.770Z,14.10
2019-04-29T22:17:55.940Z,14.10
2019-04-29T22:20:19.249Z,14.20
2019-04-29T22:22:49.767Z,14.20
2019-04-29T22:25:18.673Z,14.10
2019-04-29T22:27:47.498Z,14.10
2019-04-29T22:30:18.595Z,14.20
2019-04-29T22:32:51.806Z,14.40
2019-04-29T22:35:19.356Z,14.40
2019-04-29T22:37:48.187Z,14.40
2019-04-29T22:40:17.378Z,14.10
2019-04-29T22:43:04.461Z,13.60
2019-04-29T22:45:25.298Z,13.60
2019-04-29T22:47:55.624Z,13.90
2019-04-29T22:50:24.633Z,13.80
2019-04-29T22:52:56.619Z,14.00
2019-04-29T22:55:25.327Z,13.70
2019-04-29T22:57:55.422Z,13.50
2019-04-29T23:00:32.564Z,13.40
2019-04-29T23:02:57.688Z,13.50
2019-04-29T23:05:28.022Z,13.80
2019-04-29T23:08:00.271Z,13.70
2019-04-29T23:10:28.494Z,13.40
2019-04-29T23:12:57.627Z,13.50
2019-04-29T23:15:26.585Z,13.80
2019-04-29T23:17:55.557Z,13.90
2019-04-29T23:20:28.862Z,13.70
2019-04-29T23:23:01.028Z,13.80
2019-04-29T23:25:35.430Z,14.10
2019-04-29T23:28:04.435Z,14.10
2019-04-29T23:30:33.367Z,13.90
2019-04-29T23:33:02.207Z,14.00
2019-04-29T23:35:31.107Z,14.10
2019-04-29T23:38:04.264Z,13.80
2019-04-29T23:40:30.611Z,13.60
2019-04-29T23:42:59.458Z,13.70
2019-04-29T23:45:28.370Z,13.80
2019-04-29T23:47:57.264Z,13.80
2019-04-29T23:50:28.208Z,14.00
2019-04-29T23:52:56.762Z,14.10
2019-04-29T23:55:29.067Z,14.00
2019-04-29T23:58:13.954Z,13.90
